sensor_id;sensor_type;location;lat;lon;timestamp;temperature;humidity
58568;DHT22;44354;46.192;-1.076;2023-02-28T00:00:42;-1.10;99.90
58568;DHT22;44354;46.192;-1.076;2023-02-28T00:03:08;-1.00;99.90
58568;DHT22;44354;46.192;-1.076;2023-02-28T00:05:34;-1.10;99.90
58568;DHT22;44354;46.192;-1.076;2023-02-28T00:08:00;-1.10;99.90
58568;DHT22;44354;46.192;-1.076;2023-02-28T00:10:28;-1.10;99.90
58568;DHT22;44354;46.192;-1.076;2023-02-28T00:13:03;-1.20;99.90
58568;DHT22;44354;46.192;-1.076;2023-02-28T00:15:30;-1.10;99.90
58568;DHT22;44354;46.192;-1.076;2023-02-28T00:17:59;-1.10;99.90
58568;DHT22;44354;46.192;-1.076;2023-02-28T00:20:25;-1.10;99.90
58568;DHT22;44354;46.192;-1.076;2023-02-28T00:22:52;-1.10;99.90
58568;DHT22;44354;46.192;-1.076;2023-02-28T00:25:21;-1.20;99.90
58568;DHT22;44354;46.192;-1.076;2023-02-28T00:27:47;-1.10;99.90
58568;DHT22;44354;46.192;-1.076;2023-02-28T00:30:16;-1.10;99.90
58568;DHT22;44354;46.192;-1.076;2023-02-28T00:32:42;-1.00;99.90
58568;DHT22;44354;46.192;-1.076;2023-02-28T00:35:09;-1.00;99.90
58568;DHT22;44354;46.192;-1.076;2023-02-28T00:37:35;-1.10;99.90
58568;DHT22;44354;46.192;-1.076;2023-02-28T00:40:01;-1.10;99.90
58568;DHT22;44354;46.192;-1.076;2023-02-28T00:42:30;-1.10;99.90
58568;DHT22;44354;46.192;-1.076;2023-02-28T00:44:55;-1.10;99.90
58568;DHT22;44354;46.192;-1.076;2023-02-28T00:47:21;-1.10;99.90
58568;DHT22;44354;46.192;-1.076;2023-02-28T00:49:47;-1.10;99.90
58568;DHT22;44354;46.192;-1.076;2023-02-28T00:52:13;-1.20;99.90
58568;DHT22;44354;46.192;-1.076;2023-02-28T00:54:38;-1.20;99.90
58568;DHT22;44354;46.192;-1.076;2023-02-28T00:57:04;-1.20;99.90
58568;DHT22;44354;46.192;-1.076;2023-02-28T00:59:30;-1.20;99.90
58568;DHT22;44354;46.192;-1.076;2023-02-28T01:01:55;-1.20;99.90
58568;DHT22;44354;46.192;-1.076;2023-02-28T01:04:21;-1.20;99.90
58568;DHT22;44354;46.192;-1.076;2023-02-28T01:06:47;-1.30;99.90
58568;DHT22;44354;46.192;-1.076;2023-02-28T01:09:13;-1.30;99.90
58568;DHT22;44354;46.192;-1.076;2023-02-28T01:11:38;-1.30;99.90
58568;DHT22;44354;46.192;-1.076;2023-02-28T01:14:07;-1.40;99.90
58568;DHT22;44354;46.192;-1.076;2023-02-28T01:16:33;-1.40;99.90
58568;DHT22;44354;46.192;-1.076;2023-02-28T01:19:02;-1.40;99.90
58568;DHT22;44354;46.192;-1.076;2023-02-28T01:21:28;-1.50;99.90
58568;DHT22;44354;46.192;-1.076;2023-02-28T01:23:56;-1.50;99.90
58568;DHT22;44354;46.192;-1.076;2023-02-28T01:26:22;-1.50;99.90
58568;DHT22;44354;46.192;-1.076;2023-02-28T01:28:49;-1.50;99.90
58568;DHT22;44354;46.192;-1.076;2023-02-28T01:31:16;-1.50;99.90
58568;DHT22;44354;46.192;-1.076;2023-02-28T01:33:42;-1.50;99.90
58568;DHT22;44354;46.192;-1.076;2023-02-28T01:36:11;-1.50;99.90
58568;DHT22;44354;46.192;-1.076;2023-02-28T01:38:38;-1.50;99.90
58568;DHT22;44354;46.192;-1.076;2023-02-28T01:41:05;-1.50;99.90
58568;DHT22;44354;46.192;-1.076;2023-02-28T01:46:10;-1.50;99.90
58568;DHT22;44354;46.192;-1.076;2023-02-28T01:48:40;-1.50;99.90
58568;DHT22;44354;46.192;-1.076;2023-02-28T01:51:10;-1.50;99.90
58568;DHT22;44354;46.192;-1.076;2023-02-28T01:53:44;-1.50;99.90
58568;DHT22;44354;46.192;-1.076;2023-02-28T01:56:12;-1.50;99.90
58568;DHT22;44354;46.192;-1.076;2023-02-28T01:58:40;-1.50;99.90
58568;DHT22;44354;46.192;-1.076;2023-02-28T02:01:09;-1.50;99.90
58568;DHT22;44354;46.192;-1.076;2023-02-28T02:03:46;-1.50;99.90
58568;DHT22;44354;46.192;-1.076;2023-02-28T02:06:11;-1.50;99.90
58568;DHT22;44354;46.192;-1.076;2023-02-28T02:08:37;-1.50;99.90
58568;DHT22;44354;46.192;-1.076;2023-02-28T02:11:03;-1.60;99.90
58568;DHT22;44354;46.192;-1.076;2023-02-28T02:22:00;-1.60;99.90
58568;DHT22;44354;46.192;-1.076;2023-02-28T02:36:07;-1.70;99.90
58568;DHT22;44354;46.192;-1.076;2023-02-28T02:38:48;-1.70;99.90
58568;DHT22;44354;46.192;-1.076;2023-02-28T02:41:27;-1.60;99.90
58568;DHT22;44354;46.192;-1.076;2023-02-28T02:43:58;-1.60;99.90
58568;DHT22;44354;46.192;-1.076;2023-02-28T02:46:40;-1.60;99.90
58568;DHT22;44354;46.192;-1.076;2023-02-28T02:49:12;-1.70;99.90
58568;DHT22;44354;46.192;-1.076;2023-02-28T02:51:40;-1.60;99.90
58568;DHT22;44354;46.192;-1.076;2023-02-28T02:54:28;-1.70;99.90
58568;DHT22;44354;46.192;-1.076;2023-02-28T02:56:58;-1.70;99.90
58568;DHT22;44354;46.192;-1.076;2023-02-28T02:59:25;-1.70;99.90
58568;DHT22;44354;46.192;-1.076;2023-02-28T03:01:56;-1.80;99.90
58568;DHT22;44354;46.192;-1.076;2023-02-28T03:04:25;-1.70;99.90
58568;DHT22;44354;46.192;-1.076;2023-02-28T03:06:53;-1.80;99.90
58568;DHT22;44354;46.192;-1.076;2023-02-28T03:09:23;-1.80;99.90
58568;DHT22;44354;46.192;-1.076;2023-02-28T03:11:52;-1.80;99.90
58568;DHT22;44354;46.192;-1.076;2023-02-28T03:17:31;-1.80;99.90
58568;DHT22;44354;46.192;-1.076;2023-02-28T03:34:21;-2.00;99.90
58568;DHT22;44354;46.192;-1.076;2023-02-28T03:36:51;-2.00;99.90
58568;DHT22;44354;46.192;-1.076;2023-02-28T03:39:28;-2.00;99.90
58568;DHT22;44354;46.192;-1.076;2023-02-28T03:42:02;-2.00;99.90
58568;DHT22;44354;46.192;-1.076;2023-02-28T03:44:37;-2.00;99.90
58568;DHT22;44354;46.192;-1.076;2023-02-28T03:47:12;-2.10;99.90
58568;DHT22;44354;46.192;-1.076;2023-02-28T03:49:46;-2.10;99.90
58568;DHT22;44354;46.192;-1.076;2023-02-28T03:52:14;-2.10;99.90
58568;DHT22;44354;46.192;-1.076;2023-02-28T03:54:48;-2.10;99.90
58568;DHT22;44354;46.192;-1.076;2023-02-28T03:57:30;-2.20;99.90
58568;DHT22;44354;46.192;-1.076;2023-02-28T04:00:06;-2.10;99.90
58568;DHT22;44354;46.192;-1.076;2023-02-28T04:02:33;-2.10;99.90
58568;DHT22;44354;46.192;-1.076;2023-02-28T04:05:00;-2.10;99.90
58568;DHT22;44354;46.192;-1.076;2023-02-28T04:07:29;-2.20;99.90
58568;DHT22;44354;46.192;-1.076;2023-02-28T04:10:03;-2.20;99.90
58568;DHT22;44354;46.192;-1.076;2023-02-28T04:12:29;-2.30;99.90
58568;DHT22;44354;46.192;-1.076;2023-02-28T04:14:55;-2.30;99.90
58568;DHT22;44354;46.192;-1.076;2023-02-28T04:17:21;-2.40;99.90
58568;DHT22;44354;46.192;-1.076;2023-02-28T04:19:47;-2.40;99.90
58568;DHT22;44354;46.192;-1.076;2023-02-28T04:22:12;-2.40;99.90
58568;DHT22;44354;46.192;-1.076;2023-02-28T04:24:39;-2.40;99.90
58568;DHT22;44354;46.192;-1.076;2023-02-28T04:27:06;-2.50;99.90
58568;DHT22;44354;46.192;-1.076;2023-02-28T04:29:33;-2.40;99.90
58568;DHT22;44354;46.192;-1.076;2023-02-28T04:32:00;-2.40;99.90
58568;DHT22;44354;46.192;-1.076;2023-02-28T04:34:28;-2.40;99.90
58568;DHT22;44354;46.192;-1.076;2023-02-28T04:36:55;-2.40;99.90
58568;DHT22;44354;46.192;-1.076;2023-02-28T04:39:22;-2.40;99.90
58568;DHT22;44354;46.192;-1.076;2023-02-28T04:41:48;-2.40;99.90
58568;DHT22;44354;46.192;-1.076;2023-02-28T04:44:14;-2.50;99.90
58568;DHT22;44354;46.192;-1.076;2023-02-28T04:46:40;-2.50;99.90
58568;DHT22;44354;46.192;-1.076;2023-02-28T04:49:06;-2.50;99.90
58568;DHT22;44354;46.192;-1.076;2023-02-28T04:51:32;-2.40;99.90
58568;DHT22;44354;46.192;-1.076;2023-02-28T04:53:58;-2.40;99.90
58568;DHT22;44354;46.192;-1.076;2023-02-28T04:56:23;-2.50;99.90
58568;DHT22;44354;46.192;-1.076;2023-02-28T04:58:49;-2.50;99.90
58568;DHT22;44354;46.192;-1.076;2023-02-28T05:01:21;-2.60;99.90
58568;DHT22;44354;46.192;-1.076;2023-02-28T05:03:47;-2.60;99.90
58568;DHT22;44354;46.192;-1.076;2023-02-28T05:06:14;-2.70;99.90
58568;DHT22;44354;46.192;-1.076;2023-02-28T05:08:40;-2.70;99.90
58568;DHT22;44354;46.192;-1.076;2023-02-28T05:11:14;-2.70;99.90
58568;DHT22;44354;46.192;-1.076;2023-02-28T05:13:40;-2.70;99.90
58568;DHT22;44354;46.192;-1.076;2023-02-28T05:16:06;-2.70;99.90
58568;DHT22;44354;46.192;-1.076;2023-02-28T05:18:32;-2.80;99.90
58568;DHT22;44354;46.192;-1.076;2023-02-28T05:20:58;-2.70;99.90
58568;DHT22;44354;46.192;-1.076;2023-02-28T05:23:26;-2.70;99.90
58568;DHT22;44354;46.192;-1.076;2023-02-28T05:25:53;-2.70;99.90
58568;DHT22;44354;46.192;-1.076;2023-02-28T05:28:19;-2.70;99.90
58568;DHT22;44354;46.192;-1.076;2023-02-28T05:30:46;-2.70;99.90
58568;DHT22;44354;46.192;-1.076;2023-02-28T05:33:12;-2.70;99.90
58568;DHT22;44354;46.192;-1.076;2023-02-28T05:35:39;-2.70;99.90
58568;DHT22;44354;46.192;-1.076;2023-02-28T05:38:05;-2.70;99.90
58568;DHT22;44354;46.192;-1.076;2023-02-28T05:40:31;-2.70;99.90
58568;DHT22;44354;46.192;-1.076;2023-02-28T05:42:57;-2.70;99.90
58568;DHT22;44354;46.192;-1.076;2023-02-28T05:45:22;-2.70;99.90
58568;DHT22;44354;46.192;-1.076;2023-02-28T05:47:48;-2.80;99.90
58568;DHT22;44354;46.192;-1.076;2023-02-28T05:50:14;-2.80;99.90
58568;DHT22;44354;46.192;-1.076;2023-02-28T05:52:40;-2.80;99.90
58568;DHT22;44354;46.192;-1.076;2023-02-28T05:55:06;-2.80;99.90
58568;DHT22;44354;46.192;-1.076;2023-02-28T05:57:32;-2.80;99.90
58568;DHT22;44354;46.192;-1.076;2023-02-28T05:59:58;-2.80;99.90
58568;DHT22;44354;46.192;-1.076;2023-02-28T06:02:23;-2.80;99.90
58568;DHT22;44354;46.192;-1.076;2023-02-28T06:04:49;-2.80;99.90
58568;DHT22;44354;46.192;-1.076;2023-02-28T06:07:15;-2.80;99.90
58568;DHT22;44354;46.192;-1.076;2023-02-28T06:09:42;-2.80;99.90
58568;DHT22;44354;46.192;-1.076;2023-02-28T06:12:09;-2.80;99.90
58568;DHT22;44354;46.192;-1.076;2023-02-28T06:14:35;-2.80;99.90
58568;DHT22;44354;46.192;-1.076;2023-02-28T06:17:02;-2.80;99.90
58568;DHT22;44354;46.192;-1.076;2023-02-28T06:19:28;-2.70;99.90
58568;DHT22;44354;46.192;-1.076;2023-02-28T06:21:56;-2.80;99.90
58568;DHT22;44354;46.192;-1.076;2023-02-28T06:24:23;-2.80;99.90
58568;DHT22;44354;46.192;-1.076;2023-02-28T06:26:49;-2.80;99.90
58568;DHT22;44354;46.192;-1.076;2023-02-28T06:29:16;-2.80;99.90
58568;DHT22;44354;46.192;-1.076;2023-02-28T06:31:44;-2.80;99.90
58568;DHT22;44354;46.192;-1.076;2023-02-28T06:34:10;-2.80;99.90
58568;DHT22;44354;46.192;-1.076;2023-02-28T06:36:40;-2.80;99.90
58568;DHT22;44354;46.192;-1.076;2023-02-28T06:39:07;-2.80;99.90
58568;DHT22;44354;46.192;-1.076;2023-02-28T06:41:33;-2.80;99.90
58568;DHT22;44354;46.192;-1.076;2023-02-28T06:44:04;-2.80;99.90
58568;DHT22;44354;46.192;-1.076;2023-02-28T06:46:31;-2.80;99.90
58568;DHT22;44354;46.192;-1.076;2023-02-28T06:48:57;-2.80;99.90
58568;DHT22;44354;46.192;-1.076;2023-02-28T06:51:23;-2.80;99.90
58568;DHT22;44354;46.192;-1.076;2023-02-28T06:53:50;-2.80;99.90
58568;DHT22;44354;46.192;-1.076;2023-02-28T06:56:18;-2.90;99.90
58568;DHT22;44354;46.192;-1.076;2023-02-28T06:58:49;-2.90;99.90
58568;DHT22;44354;46.192;-1.076;2023-02-28T07:01:16;-3.00;99.90
58568;DHT22;44354;46.192;-1.076;2023-02-28T07:03:42;-3.00;99.90
58568;DHT22;44354;46.192;-1.076;2023-02-28T07:06:08;-3.00;99.90
58568;DHT22;44354;46.192;-1.076;2023-02-28T07:08:34;-3.00;99.90
58568;DHT22;44354;46.192;-1.076;2023-02-28T07:11:00;-3.00;99.90
58568;DHT22;44354;46.192;-1.076;2023-02-28T07:13:26;-3.00;99.90
58568;DHT22;44354;46.192;-1.076;2023-02-28T07:15:57;-3.00;99.90
58568;DHT22;44354;46.192;-1.076;2023-02-28T07:18:23;-2.90;99.90
58568;DHT22;44354;46.192;-1.076;2023-02-28T07:20:49;-2.90;99.90
58568;DHT22;44354;46.192;-1.076;2023-02-28T07:23:15;-2.90;99.90
58568;DHT22;44354;46.192;-1.076;2023-02-28T07:25:41;-2.80;99.90
58568;DHT22;44354;46.192;-1.076;2023-02-28T07:28:06;-2.70;99.90
58568;DHT22;44354;46.192;-1.076;2023-02-28T07:30:32;-2.70;99.90
58568;DHT22;44354;46.192;-1.076;2023-02-28T07:32:58;-2.70;99.90
58568;DHT22;44354;46.192;-1.076;2023-02-28T07:35:23;-2.60;99.90
58568;DHT22;44354;46.192;-1.076;2023-02-28T07:37:49;-2.60;99.90
58568;DHT22;44354;46.192;-1.076;2023-02-28T07:40:15;-2.50;99.90
58568;DHT22;44354;46.192;-1.076;2023-02-28T07:42:43;-2.50;99.90
58568;DHT22;44354;46.192;-1.076;2023-02-28T07:45:10;-2.40;99.90
58568;DHT22;44354;46.192;-1.076;2023-02-28T07:47:37;-2.30;99.90
58568;DHT22;44354;46.192;-1.076;2023-02-28T07:50:05;-2.20;99.90
58568;DHT22;44354;46.192;-1.076;2023-02-28T07:52:30;-2.20;99.90
58568;DHT22;44354;46.192;-1.076;2023-02-28T07:54:57;-2.10;99.90
58568;DHT22;44354;46.192;-1.076;2023-02-28T07:57:23;-2.10;99.90
58568;DHT22;44354;46.192;-1.076;2023-02-28T07:59:48;-2.00;99.90
58568;DHT22;44354;46.192;-1.076;2023-02-28T08:02:15;-2.00;99.90
58568;DHT22;44354;46.192;-1.076;2023-02-28T08:04:41;-1.90;99.90
58568;DHT22;44354;46.192;-1.076;2023-02-28T08:07:07;-1.80;99.90
58568;DHT22;44354;46.192;-1.076;2023-02-28T08:09:34;-1.70;99.90
58568;DHT22;44354;46.192;-1.076;2023-02-28T08:12:05;-1.70;99.90
58568;DHT22;44354;46.192;-1.076;2023-02-28T08:14:31;-1.70;99.90
58568;DHT22;44354;46.192;-1.076;2023-02-28T08:16:57;-1.60;99.90
58568;DHT22;44354;46.192;-1.076;2023-02-28T08:19:22;-1.50;99.90
58568;DHT22;44354;46.192;-1.076;2023-02-28T08:21:48;-1.40;99.90
58568;DHT22;44354;46.192;-1.076;2023-02-28T08:24:14;-1.30;99.90
58568;DHT22;44354;46.192;-1.076;2023-02-28T08:26:39;-1.20;99.90
58568;DHT22;44354;46.192;-1.076;2023-02-28T08:29:05;-1.10;99.90
58568;DHT22;44354;46.192;-1.076;2023-02-28T08:31:31;-1.00;99.90
58568;DHT22;44354;46.192;-1.076;2023-02-28T08:33:56;-0.90;99.90
58568;DHT22;44354;46.192;-1.076;2023-02-28T08:36:25;-0.80;99.90
58568;DHT22;44354;46.192;-1.076;2023-02-28T08:38:51;-0.70;99.90
58568;DHT22;44354;46.192;-1.076;2023-02-28T08:41:16;-0.60;99.90
58568;DHT22;44354;46.192;-1.076;2023-02-28T08:43:42;-0.50;99.90
58568;DHT22;44354;46.192;-1.076;2023-02-28T08:46:12;-0.40;99.90
58568;DHT22;44354;46.192;-1.076;2023-02-28T08:48:38;-0.30;99.90
58568;DHT22;44354;46.192;-1.076;2023-02-28T08:51:09;-0.20;99.90
58568;DHT22;44354;46.192;-1.076;2023-02-28T08:53:39;-0.20;99.90
58568;DHT22;44354;46.192;-1.076;2023-02-28T08:56:08;-0.10;99.90
58568;DHT22;44354;46.192;-1.076;2023-02-28T08:58:35;0.00;99.90
58568;DHT22;44354;46.192;-1.076;2023-02-28T09:01:10;0.00;99.90
58568;DHT22;44354;46.192;-1.076;2023-02-28T09:03:37;0.10;99.90
58568;DHT22;44354;46.192;-1.076;2023-02-28T09:06:03;0.20;99.90
58568;DHT22;44354;46.192;-1.076;2023-02-28T09:08:30;0.30;99.90
58568;DHT22;44354;46.192;-1.076;2023-02-28T09:10:56;0.50;99.90
58568;DHT22;44354;46.192;-1.076;2023-02-28T09:13:24;0.60;99.90
58568;DHT22;44354;46.192;-1.076;2023-02-28T09:15:50;0.60;99.90
58568;DHT22;44354;46.192;-1.076;2023-02-28T09:18:16;0.70;99.90
58568;DHT22;44354;46.192;-1.076;2023-02-28T09:20:42;0.70;99.90
58568;DHT22;44354;46.192;-1.076;2023-02-28T09:23:10;0.80;99.90
58568;DHT22;44354;46.192;-1.076;2023-02-28T09:25:36;0.90;99.90
58568;DHT22;44354;46.192;-1.076;2023-02-28T09:28:02;1.00;99.90
58568;DHT22;44354;46.192;-1.076;2023-02-28T09:30:29;1.30;99.90
58568;DHT22;44354;46.192;-1.076;2023-02-28T09:32:55;1.40;99.90
58568;DHT22;44354;46.192;-1.076;2023-02-28T09:35:21;1.50;99.90
58568;DHT22;44354;46.192;-1.076;2023-02-28T09:37:51;1.50;99.90
58568;DHT22;44354;46.192;-1.076;2023-02-28T09:40:19;1.60;99.90
58568;DHT22;44354;46.192;-1.076;2023-02-28T09:42:48;1.80;99.90
58568;DHT22;44354;46.192;-1.076;2023-02-28T09:45:30;1.80;99.90
58568;DHT22;44354;46.192;-1.076;2023-02-28T09:48:04;1.90;99.90
58568;DHT22;44354;46.192;-1.076;2023-02-28T09:50:38;2.00;99.90
58568;DHT22;44354;46.192;-1.076;2023-02-28T09:53:26;2.20;99.90
58568;DHT22;44354;46.192;-1.076;2023-02-28T09:56:13;2.40;99.90
58568;DHT22;44354;46.192;-1.076;2023-02-28T09:58:48;2.40;99.90
58568;DHT22;44354;46.192;-1.076;2023-02-28T10:01:18;2.60;99.90
58568;DHT22;44354;46.192;-1.076;2023-02-28T10:06:29;2.80;99.90
58568;DHT22;44354;46.192;-1.076;2023-02-28T10:09:04;2.80;99.90
58568;DHT22;44354;46.192;-1.076;2023-02-28T10:11:36;2.90;99.90
58568;DHT22;44354;46.192;-1.076;2023-02-28T10:14:11;2.90;99.90
58568;DHT22;44354;46.192;-1.076;2023-02-28T10:16:51;2.90;99.90
58568;DHT22;44354;46.192;-1.076;2023-02-28T10:24:43;3.10;99.90
58568;DHT22;44354;46.192;-1.076;2023-02-28T10:27:19;3.10;99.90
58568;DHT22;44354;46.192;-1.076;2023-02-28T10:29:51;3.20;99.90
58568;DHT22;44354;46.192;-1.076;2023-02-28T10:32:24;3.50;99.90
58568;DHT22;44354;46.192;-1.076;2023-02-28T10:35:09;3.70;99.90
58568;DHT22;44354;46.192;-1.076;2023-02-28T10:37:40;3.80;97.40
58568;DHT22;44354;46.192;-1.076;2023-02-28T10:43:18;3.90;86.90
58568;DHT22;44354;46.192;-1.076;2023-02-28T10:48:44;4.00;87.30
58568;DHT22;44354;46.192;-1.076;2023-02-28T10:51:12;3.90;68.60
58568;DHT22;44354;46.192;-1.076;2023-02-28T10:56:15;4.10;63.20
58568;DHT22;44354;46.192;-1.076;2023-02-28T11:01:49;4.20;50.30
58568;DHT22;44354;46.192;-1.076;2023-02-28T11:04:34;4.20;44.70
58568;DHT22;44354;46.192;-1.076;2023-02-28T11:07:21;4.20;36.60
58568;DHT22;44354;46.192;-1.076;2023-02-28T11:09:57;4.30;37.90
58568;DHT22;44354;46.192;-1.076;2023-02-28T11:12:29;4.40;36.40
58568;DHT22;44354;46.192;-1.076;2023-02-28T11:15:05;4.30;28.30
58568;DHT22;44354;46.192;-1.076;2023-02-28T11:17:33;4.40;35.10
58568;DHT22;44354;46.192;-1.076;2023-02-28T11:20:05;4.50;37.60
58568;DHT22;44354;46.192;-1.076;2023-02-28T11:22:43;4.50;31.20
58568;DHT22;44354;46.192;-1.076;2023-02-28T11:25:38;4.60;36.20
58568;DHT22;44354;46.192;-1.076;2023-02-28T11:28:06;4.90;42.40
58568;DHT22;44354;46.192;-1.076;2023-02-28T11:31:20;4.90;36.40
58568;DHT22;44354;46.192;-1.076;2023-02-28T11:33:58;4.40;19.00
58568;DHT22;44354;46.192;-1.076;2023-02-28T11:36:31;4.30;25.70
58568;DHT22;44354;46.192;-1.076;2023-02-28T11:39:08;4.30;28.20
58568;DHT22;44354;46.192;-1.076;2023-02-28T11:50:42;4.70;29.50
58568;DHT22;44354;46.192;-1.076;2023-02-28T11:56:29;4.40;23.20
58568;DHT22;44354;46.192;-1.076;2023-02-28T11:59:12;4.50;24.30
58568;DHT22;44354;46.192;-1.076;2023-02-28T12:10:25;5.00;13.50
58568;DHT22;44354;46.192;-1.076;2023-02-28T12:18:47;5.00;2.60
58568;DHT22;44354;46.192;-1.076;2023-02-28T12:22:01;5.20;12.30
58568;DHT22;44354;46.192;-1.076;2023-02-28T12:24:45;5.20;4.70
58568;DHT22;44354;46.192;-1.076;2023-02-28T12:27:28;5.20;4.00
58568;DHT22;44354;46.192;-1.076;2023-02-28T12:30:01;5.20;1.00
58568;DHT22;44354;46.192;-1.076;2023-02-28T12:32:37;5.20;1.10
58568;DHT22;44354;46.192;-1.076;2023-02-28T12:35:12;5.20;2.50
58568;DHT22;44354;46.192;-1.076;2023-02-28T12:37:43;5.10;1.00
58568;DHT22;44354;46.192;-1.076;2023-02-28T12:41:08;5.20;1.00
58568;DHT22;44354;46.192;-1.076;2023-02-28T12:44:02;5.30;1.00
58568;DHT22;44354;46.192;-1.076;2023-02-28T12:46:59;5.40;2.80
58568;DHT22;44354;46.192;-1.076;2023-02-28T12:49:38;5.30;1.00
58568;DHT22;44354;46.192;-1.076;2023-02-28T12:52:05;5.50;3.60
58568;DHT22;44354;46.192;-1.076;2023-02-28T12:55:11;5.50;1.00
58568;DHT22;44354;46.192;-1.076;2023-02-28T12:57:55;5.40;1.00
58568;DHT22;44354;46.192;-1.076;2023-02-28T13:00:32;5.40;1.00
58568;DHT22;44354;46.192;-1.076;2023-02-28T13:03:21;5.40;1.00
58568;DHT22;44354;46.192;-1.076;2023-02-28T13:11:01;5.70;3.10
58568;DHT22;44354;46.192;-1.076;2023-02-28T13:13:29;5.80;9.10
58568;DHT22;44354;46.192;-1.076;2023-02-28T13:16:11;5.80;1.00
58568;DHT22;44354;46.192;-1.076;2023-02-28T13:18:45;5.80;1.00
58568;DHT22;44354;46.192;-1.076;2023-02-28T13:21:25;5.70;1.00
58568;DHT22;44354;46.192;-1.076;2023-02-28T13:29:01;5.50;1.00
58568;DHT22;44354;46.192;-1.076;2023-02-28T13:34:33;5.70;1.00
58568;DHT22;44354;46.192;-1.076;2023-02-28T13:42:34;6.10;1.00
58568;DHT22;44354;46.192;-1.076;2023-02-28T13:45:28;6.10;1.00
58568;DHT22;44354;46.192;-1.076;2023-02-28T13:48:02;6.40;1.00
58568;DHT22;44354;46.192;-1.076;2023-02-28T13:50:34;6.00;1.00
58568;DHT22;44354;46.192;-1.076;2023-02-28T14:02:03;6.50;1.00
58568;DHT22;44354;46.192;-1.076;2023-02-28T14:05:05;6.50;1.00
58568;DHT22;44354;46.192;-1.076;2023-02-28T14:07:38;6.30;1.00
58568;DHT22;44354;46.192;-1.076;2023-02-28T14:10:15;6.20;1.00
58568;DHT22;44354;46.192;-1.076;2023-02-28T14:15:41;6.30;1.00
58568;DHT22;44354;46.192;-1.076;2023-02-28T14:18:20;6.30;1.00
58568;DHT22;44354;46.192;-1.076;2023-02-28T14:20:48;6.20;1.00
58568;DHT22;44354;46.192;-1.076;2023-02-28T14:26:38;6.20;1.00
58568;DHT22;44354;46.192;-1.076;2023-02-28T14:34:55;6.50;1.00
58568;DHT22;44354;46.192;-1.076;2023-02-28T14:37:28;6.20;1.00
58568;DHT22;44354;46.192;-1.076;2023-02-28T14:39:57;5.90;1.00
58568;DHT22;44354;46.192;-1.076;2023-02-28T14:42:34;6.10;1.00
58568;DHT22;44354;46.192;-1.076;2023-02-28T14:45:01;6.40;1.00
58568;DHT22;44354;46.192;-1.076;2023-02-28T14:47:35;6.50;1.00
58568;DHT22;44354;46.192;-1.076;2023-02-28T14:50:18;6.40;1.00
58568;DHT22;44354;46.192;-1.076;2023-02-28T14:52:44;6.30;1.00
58568;DHT22;44354;46.192;-1.076;2023-02-28T14:55:15;6.20;1.00
58568;DHT22;44354;46.192;-1.076;2023-02-28T14:57:54;6.20;1.00
58568;DHT22;44354;46.192;-1.076;2023-02-28T15:00:26;6.50;1.00
58568;DHT22;44354;46.192;-1.076;2023-02-28T15:02:53;6.80;1.00
58568;DHT22;44354;46.192;-1.076;2023-02-28T15:05:29;6.90;1.00
58568;DHT22;44354;46.192;-1.076;2023-02-28T15:08:15;6.70;1.00
58568;DHT22;44354;46.192;-1.076;2023-02-28T15:11:02;6.40;1.00
58568;DHT22;44354;46.192;-1.076;2023-02-28T15:13:44;6.60;1.00
58568;DHT22;44354;46.192;-1.076;2023-02-28T15:16:37;6.50;1.00
58568;DHT22;44354;46.192;-1.076;2023-02-28T15:19:05;6.00;1.00
58568;DHT22;44354;46.192;-1.076;2023-02-28T15:21:40;5.90;1.00
58568;DHT22;44354;46.192;-1.076;2023-02-28T15:26:53;6.60;1.00
58568;DHT22;44354;46.192;-1.076;2023-02-28T15:29:27;6.80;1.00
58568;DHT22;44354;46.192;-1.076;2023-02-28T15:32:01;6.80;1.00
58568;DHT22;44354;46.192;-1.076;2023-02-28T15:34:41;6.30;1.00
58568;DHT22;44354;46.192;-1.076;2023-02-28T15:40:07;5.70;1.00
58568;DHT22;44354;46.192;-1.076;2023-02-28T15:42:35;5.60;1.00
58568;DHT22;44354;46.192;-1.076;2023-02-28T15:45:01;5.50;1.00
58568;DHT22;44354;46.192;-1.076;2023-02-28T15:47:29;5.40;1.00
58568;DHT22;44354;46.192;-1.076;2023-02-28T15:50:00;5.50;1.00
58568;DHT22;44354;46.192;-1.076;2023-02-28T15:55:17;5.40;1.00
58568;DHT22;44354;46.192;-1.076;2023-02-28T15:57:45;5.30;1.00
58568;DHT22;44354;46.192;-1.076;2023-02-28T16:00:16;5.30;1.00
58568;DHT22;44354;46.192;-1.076;2023-02-28T16:02:46;5.30;1.00
58568;DHT22;44354;46.192;-1.076;2023-02-28T16:08:00;5.00;1.00
58568;DHT22;44354;46.192;-1.076;2023-02-28T16:10:46;4.90;1.00
58568;DHT22;44354;46.192;-1.076;2023-02-28T16:13:12;4.90;1.00
58568;DHT22;44354;46.192;-1.076;2023-02-28T16:15:42;4.80;1.00
58568;DHT22;44354;46.192;-1.076;2023-02-28T16:18:12;4.80;1.00
58568;DHT22;44354;46.192;-1.076;2023-02-28T16:20:45;4.80;1.00
58568;DHT22;44354;46.192;-1.076;2023-02-28T16:23:11;4.80;1.00
58568;DHT22;44354;46.192;-1.076;2023-02-28T16:25:40;4.90;1.00
58568;DHT22;44354;46.192;-1.076;2023-02-28T16:28:23;5.00;1.00
58568;DHT22;44354;46.192;-1.076;2023-02-28T16:30:52;5.30;1.00
58568;DHT22;44354;46.192;-1.076;2023-02-28T16:33:37;5.40;1.00
58568;DHT22;44354;46.192;-1.076;2023-02-28T16:36:25;5.60;1.00
58568;DHT22;44354;46.192;-1.076;2023-02-28T16:38:55;5.60;1.00
58568;DHT22;44354;46.192;-1.076;2023-02-28T16:41:24;5.50;1.00
58568;DHT22;44354;46.192;-1.076;2023-02-28T16:43:54;5.40;1.00
58568;DHT22;44354;46.192;-1.076;2023-02-28T16:46:33;5.20;1.00
58568;DHT22;44354;46.192;-1.076;2023-02-28T16:49:00;5.10;1.00
58568;DHT22;44354;46.192;-1.076;2023-02-28T16:51:26;5.00;1.00
58568;DHT22;44354;46.192;-1.076;2023-02-28T16:53:51;5.00;1.00
58568;DHT22;44354;46.192;-1.076;2023-02-28T16:56:22;4.90;1.00
58568;DHT22;44354;46.192;-1.076;2023-02-28T16:59:00;4.90;1.00
58568;DHT22;44354;46.192;-1.076;2023-02-28T17:01:26;4.80;1.00
58568;DHT22;44354;46.192;-1.076;2023-02-28T17:03:53;4.70;1.00
58568;DHT22;44354;46.192;-1.076;2023-02-28T17:06:19;4.60;1.00
58568;DHT22;44354;46.192;-1.076;2023-02-28T17:08:48;4.40;1.00
58568;DHT22;44354;46.192;-1.076;2023-02-28T17:11:14;4.30;1.00
58568;DHT22;44354;46.192;-1.076;2023-02-28T17:13:40;4.20;1.00
58568;DHT22;44354;46.192;-1.076;2023-02-28T17:16:08;4.10;1.00
58568;DHT22;44354;46.192;-1.076;2023-02-28T17:18:36;4.10;2.50
58568;DHT22;44354;46.192;-1.076;2023-02-28T17:21:09;4.00;3.00
58568;DHT22;44354;46.192;-1.076;2023-02-28T17:23:38;3.90;4.90
58568;DHT22;44354;46.192;-1.076;2023-02-28T17:26:03;3.80;7.30
58568;DHT22;44354;46.192;-1.076;2023-02-28T17:28:32;3.80;10.60
58568;DHT22;44354;46.192;-1.076;2023-02-28T17:30:57;3.70;13.20
58568;DHT22;44354;46.192;-1.076;2023-02-28T17:33:23;3.60;14.70
58568;DHT22;44354;46.192;-1.076;2023-02-28T17:35:52;3.60;15.80
58568;DHT22;44354;46.192;-1.076;2023-02-28T17:38:19;3.50;17.50
58568;DHT22;44354;46.192;-1.076;2023-02-28T17:40:45;3.40;19.70
58568;DHT22;44354;46.192;-1.076;2023-02-28T17:43:11;3.30;21.40
58568;DHT22;44354;46.192;-1.076;2023-02-28T17:45:37;3.20;22.70
58568;DHT22;44354;46.192;-1.076;2023-02-28T17:48:03;3.20;24.10
58568;DHT22;44354;46.192;-1.076;2023-02-28T17:50:30;3.00;25.30
58568;DHT22;44354;46.192;-1.076;2023-02-28T17:53:02;3.00;27.40
58568;DHT22;44354;46.192;-1.076;2023-02-28T17:55:38;2.80;29.10
58568;DHT22;44354;46.192;-1.076;2023-02-28T17:58:05;2.60;31.90
58568;DHT22;44354;46.192;-1.076;2023-02-28T18:00:34;2.60;34.40
58568;DHT22;44354;46.192;-1.076;2023-02-28T18:03:08;2.50;35.90
58568;DHT22;44354;46.192;-1.076;2023-02-28T18:05:36;2.40;39.20